This is the latest recevied weather packets stored in our database for station/object EA7RX-3. If no packets are shown the sender has not sent any weather packets the latest 1 day(s).
| Time | Temp. | Humidity | Pressure | Rain* | Wind** | Luminosity | Snow |
|---|---|---|---|---|---|---|---|
| 1778087903 | 22.78° C | 37% | 1006.8 hPa | - | - | - | - |
| 1778086703 | 21.67° C | 38% | 1007.2 hPa | - | - | - | - |
| 1778086103 | 21.67° C | 39% | 1007.2 hPa | - | - | - | - |
| 1778085503 | 21.11° C | 40% | 1007.4 hPa | - | - | - | - |
| 1778084903 | 20° C | 41% | 1007.7 hPa | - | - | - | - |
| 1778083703 | 20.56° C | 40% | 1007.6 hPa | - | - | - | - |
| 1778081903 | 21.11° C | 40% | 1007.9 hPa | - | - | - | - |
| 1778081303 | 20.56° C | 42% | 1008 hPa | - | - | - | - |
| 1778080703 | 21.11° C | 40% | 1008.1 hPa | - | - | - | - |
| 1778080103 | 20° C | 43% | 1008.4 hPa | - | - | - | - |
| 1778079503 | 21.67° C | 40% | 1008 hPa | - | - | - | - |
| 1778077703 | 20.56° C | 42% | 1008.9 hPa | - | - | - | - |
| 1778077103 | 20.56° C | 44% | 1009.1 hPa | - | - | - | - |
| 1778076503 | 18.33° C | 49% | 1009.8 hPa | - | - | - | - |
| 1778075303 | 18.89° C | 47% | 1009.8 hPa | - | - | - | - |
| 1778074703 | 18.89° C | 48% | 1009.8 hPa | - | - | - | - |
| 1778073503 | 18.89° C | 50% | 1009.9 hPa | - | - | - | - |
| 1778072903 | 19.44° C | 48% | 1009.9 hPa | - | - | - | - |
| 1778072303 | 17.78° C | 53% | 1010.3 hPa | - | - | - | - |
| 1778071703 | 18.33° C | 53% | 1010.4 hPa | - | - | - | - |
| 1778071103 | 18.89° C | 52% | 1010.3 hPa | - | - | - | - |
| 1778070503 | 18.33° C | 53% | 1010.5 hPa | - | - | - | - |
| 1778069303 | 17.78° C | 55% | 1010.9 hPa | - | - | - | - |
| 1778068703 | 17.78° C | 56% | 1010.9 hPa | - | - | - | - |
| 1778067503 | 16.67° C | 60% | 1011.4 hPa | - | - | - | - |
* Rain since midnight (hover to see other rain measurements)
** Current wind speed in m/s (hover to see current wind gust speed)